sensor_id;sensor_type;location;lat;lon;timestamp;P1;P2;P0
62547;PMS7003;48602;45.192;5.722;2022-08-25T00:00:20;25.00;24.50;20.00
62547;PMS7003;48602;45.192;5.722;2022-08-25T00:02:46;20.50;19.75;17.25
62547;PMS7003;48602;45.192;5.722;2022-08-25T00:05:12;18.50;18.50;15.75
62547;PMS7003;48602;45.192;5.722;2022-08-25T00:07:38;19.00;19.00;16.50
62547;PMS7003;48602;45.192;5.722;2022-08-25T00:10:04;16.50;16.00;15.00
62547;PMS7003;48602;45.192;5.722;2022-08-25T00:12:30;17.25;16.75;14.00
62547;PMS7003;48602;45.192;5.722;2022-08-25T00:14:56;18.50;16.50;13.50
62547;PMS7003;48602;45.192;5.722;2022-08-25T00:17:22;18.50;17.00;13.75
62547;PMS7003;48602;45.192;5.722;2022-08-25T00:19:47;18.25;18.25;15.75
62547;PMS7003;48602;45.192;5.722;2022-08-25T00:22:12;16.75;16.25;14.25
62547;PMS7003;48602;45.192;5.722;2022-08-25T00:24:38;17.25;15.50;13.25
62547;PMS7003;48602;45.192;5.722;2022-08-25T00:27:03;17.00;17.00;15.00
62547;PMS7003;48602;45.192;5.722;2022-08-25T00:29:30;17.00;17.00;14.00
62547;PMS7003;48602;45.192;5.722;2022-08-25T00:31:56;18.00;17.00;14.00
62547;PMS7003;48602;45.192;5.722;2022-08-25T00:34:25;18.25;17.25;16.00
62547;PMS7003;48602;45.192;5.722;2022-08-25T00:36:54;22.25;18.50;15.75
62547;PMS7003;48602;45.192;5.722;2022-08-25T00:39:20;17.50;16.50;14.00
62547;PMS7003;48602;45.192;5.722;2022-08-25T00:41:47;16.00;16.00;14.00
62547;PMS7003;48602;45.192;5.722;2022-08-25T00:44:15;17.50;16.50;14.75
62547;PMS7003;48602;45.192;5.722;2022-08-25T00:46:51;16.25;15.25;13.25
62547;PMS7003;48602;45.192;5.722;2022-08-25T00:49:26;16.75;16.75;13.75
62547;PMS7003;48602;45.192;5.722;2022-08-25T00:52:00;15.50;14.75;11.50
62547;PMS7003;48602;45.192;5.722;2022-08-25T00:54:38;18.50;16.25;14.50
62547;PMS7003;48602;45.192;5.722;2022-08-25T00:57:09;14.75;14.00;13.25
62547;PMS7003;48602;45.192;5.722;2022-08-25T00:59:36;16.00;16.00;12.75
62547;PMS7003;48602;45.192;5.722;2022-08-25T01:02:03;17.00;14.75;13.00
62547;PMS7003;48602;45.192;5.722;2022-08-25T01:04:31;18.50;17.75;15.00
62547;PMS7003;48602;45.192;5.722;2022-08-25T01:06:57;16.25;16.25;14.00
62547;PMS7003;48602;45.192;5.722;2022-08-25T01:09:24;19.50;16.25;14.25
62547;PMS7003;48602;45.192;5.722;2022-08-25T01:11:50;18.50;16.50;15.25
62547;PMS7003;48602;45.192;5.722;2022-08-25T01:14:18;18.00;17.25;15.00
62547;PMS7003;48602;45.192;5.722;2022-08-25T01:16:45;15.75;14.50;12.00
62547;PMS7003;48602;45.192;5.722;2022-08-25T01:19:11;16.50;16.50;14.00
62547;PMS7003;48602;45.192;5.722;2022-08-25T01:21:40;15.75;15.75;13.75
62547;PMS7003;48602;45.192;5.722;2022-08-25T01:24:10;18.75;17.75;14.50
62547;PMS7003;48602;45.192;5.722;2022-08-25T01:26:59;17.25;17.00;16.00
62547;PMS7003;48602;45.192;5.722;2022-08-25T01:29:25;16.25;14.25;12.25
62547;PMS7003;48602;45.192;5.722;2022-08-25T01:31:53;17.50;17.50;15.50
62547;PMS7003;48602;45.192;5.722;2022-08-25T01:34:22;16.75;16.00;13.25
62547;PMS7003;48602;45.192;5.722;2022-08-25T01:36:49;15.50;15.50;12.50
62547;PMS7003;48602;45.192;5.722;2022-08-25T01:39:15;15.50;14.00;13.00
62547;PMS7003;48602;45.192;5.722;2022-08-25T01:44:23;17.00;17.00;15.25
62547;PMS7003;48602;45.192;5.722;2022-08-25T01:46:50;16.25;14.75;13.50
62547;PMS7003;48602;45.192;5.722;2022-08-25T01:49:16;20.50;18.75;15.75
62547;PMS7003;48602;45.192;5.722;2022-08-25T01:51:42;19.50;17.25;13.25
62547;PMS7003;48602;45.192;5.722;2022-08-25T01:54:11;16.25;16.25;13.50
62547;PMS7003;48602;45.192;5.722;2022-08-25T01:56:37;17.00;17.00;15.25
62547;PMS7003;48602;45.192;5.722;2022-08-25T01:59:02;16.00;15.00;13.00
62547;PMS7003;48602;45.192;5.722;2022-08-25T02:01:28;18.00;18.00;16.00
62547;PMS7003;48602;45.192;5.722;2022-08-25T02:03:54;17.50;16.75;14.00
62547;PMS7003;48602;45.192;5.722;2022-08-25T02:06:22;15.50;13.25;12.25
62547;PMS7003;48602;45.192;5.722;2022-08-25T02:08:51;15.00;14.00;11.25
62547;PMS7003;48602;45.192;5.722;2022-08-25T02:11:18;19.00;18.00;15.00
62547;PMS7003;48602;45.192;5.722;2022-08-25T02:13:45;18.50;14.25;12.25
62547;PMS7003;48602;45.192;5.722;2022-08-25T02:16:13;15.75;15.25;12.50
62547;PMS7003;48602;45.192;5.722;2022-08-25T02:18:44;19.50;19.00;14.50
62547;PMS7003;48602;45.192;5.722;2022-08-25T02:21:11;16.25;14.75;13.50
62547;PMS7003;48602;45.192;5.722;2022-08-25T02:23:38;16.25;15.25;12.50
62547;PMS7003;48602;45.192;5.722;2022-08-25T02:26:04;16.00;14.25;13.00
62547;PMS7003;48602;45.192;5.722;2022-08-25T02:28:29;16.50;16.50;13.75
62547;PMS7003;48602;45.192;5.722;2022-08-25T02:30:55;11.00;10.25;10.25
62547;PMS7003;48602;45.192;5.722;2022-08-25T02:33:20;18.00;18.00;15.00
62547;PMS7003;48602;45.192;5.722;2022-08-25T02:35:46;24.25;24.00;20.75
62547;PMS7003;48602;45.192;5.722;2022-08-25T02:38:12;15.00;15.00;13.00
62547;PMS7003;48602;45.192;5.722;2022-08-25T02:40:37;19.00;16.75;14.00
62547;PMS7003;48602;45.192;5.722;2022-08-25T02:43:03;15.25;15.25;13.75
62547;PMS7003;48602;45.192;5.722;2022-08-25T02:45:29;14.25;13.25;12.25
62547;PMS7003;48602;45.192;5.722;2022-08-25T02:47:55;16.25;15.25;13.75
62547;PMS7003;48602;45.192;5.722;2022-08-25T02:50:21;16.50;15.25;14.00
62547;PMS7003;48602;45.192;5.722;2022-08-25T02:52:47;14.25;14.00;13.00
62547;PMS7003;48602;45.192;5.722;2022-08-25T02:55:14;21.00;17.00;14.00
62547;PMS7003;48602;45.192;5.722;2022-08-25T02:57:41;17.00;16.00;12.75
62547;PMS7003;48602;45.192;5.722;2022-08-25T03:00:08;15.00;15.00;13.00
62547;PMS7003;48602;45.192;5.722;2022-08-25T03:02:35;14.25;14.25;13.25
62547;PMS7003;48602;45.192;5.722;2022-08-25T03:05:01;16.75;16.75;14.75
62547;PMS7003;48602;45.192;5.722;2022-08-25T03:07:26;17.50;17.25;13.75
62547;PMS7003;48602;45.192;5.722;2022-08-25T03:09:52;17.00;17.00;14.50
62547;PMS7003;48602;45.192;5.722;2022-08-25T03:12:17;20.50;19.00;18.00
62547;PMS7003;48602;45.192;5.722;2022-08-25T03:14:42;19.25;19.00;15.00
62547;PMS7003;48602;45.192;5.722;2022-08-25T03:17:08;21.50;20.00;16.00
62547;PMS7003;48602;45.192;5.722;2022-08-25T03:19:34;19.00;18.75;16.00
62547;PMS7003;48602;45.192;5.722;2022-08-25T03:22:00;16.50;15.75;14.50
62547;PMS7003;48602;45.192;5.722;2022-08-25T03:24:26;17.50;16.00;13.50
62547;PMS7003;48602;45.192;5.722;2022-08-25T03:26:52;20.25;17.50;15.00
62547;PMS7003;48602;45.192;5.722;2022-08-25T03:29:19;20.25;19.50;16.75
62547;PMS7003;48602;45.192;5.722;2022-08-25T03:31:45;16.50;16.25;14.00
62547;PMS7003;48602;45.192;5.722;2022-08-25T03:34:11;18.75;17.50;15.50
62547;PMS7003;48602;45.192;5.722;2022-08-25T03:36:37;14.75;14.75;13.50
62547;PMS7003;48602;45.192;5.722;2022-08-25T03:39:03;26.33;26.33;22.33
62547;PMS7003;48602;45.192;5.722;2022-08-25T03:41:29;21.00;19.75;17.00
62547;PMS7003;48602;45.192;5.722;2022-08-25T03:43:57;16.00;16.00;13.25
62547;PMS7003;48602;45.192;5.722;2022-08-25T03:46:25;17.25;16.00;14.25
62547;PMS7003;48602;45.192;5.722;2022-08-25T03:48:53;17.00;17.00;15.00
62547;PMS7003;48602;45.192;5.722;2022-08-25T03:51:23;16.50;16.50;14.50
62547;PMS7003;48602;45.192;5.722;2022-08-25T03:53:51;20.25;19.25;17.50
62547;PMS7003;48602;45.192;5.722;2022-08-25T03:56:16;21.00;20.00;17.50
62547;PMS7003;48602;45.192;5.722;2022-08-25T03:58:42;18.00;18.00;16.50
62547;PMS7003;48602;45.192;5.722;2022-08-25T04:01:07;19.25;18.75;16.25
62547;PMS7003;48602;45.192;5.722;2022-08-25T04:03:34;21.25;19.50;15.75
62547;PMS7003;48602;45.192;5.722;2022-08-25T04:06:00;18.75;18.25;15.25
62547;PMS7003;48602;45.192;5.722;2022-08-25T04:08:26;23.50;20.50;15.25
62547;PMS7003;48602;45.192;5.722;2022-08-25T04:10:52;21.50;18.00;16.00
62547;PMS7003;48602;45.192;5.722;2022-08-25T04:13:18;17.25;17.25;15.75
62547;PMS7003;48602;45.192;5.722;2022-08-25T04:15:43;17.25;17.25;14.50
62547;PMS7003;48602;45.192;5.722;2022-08-25T04:18:09;15.00;15.00;14.00
62547;PMS7003;48602;45.192;5.722;2022-08-25T04:20:37;16.25;14.00;12.50
62547;PMS7003;48602;45.192;5.722;2022-08-25T04:23:04;19.75;18.25;15.00
62547;PMS7003;48602;45.192;5.722;2022-08-25T04:25:29;18.00;17.00;14.00
62547;PMS7003;48602;45.192;5.722;2022-08-25T04:27:55;15.75;15.75;14.00
62547;PMS7003;48602;45.192;5.722;2022-08-25T04:30:21;19.25;17.00;14.50
62547;PMS7003;48602;45.192;5.722;2022-08-25T04:32:47;16.75;16.25;13.25
62547;PMS7003;48602;45.192;5.722;2022-08-25T04:35:13;18.00;17.50;14.50
62547;PMS7003;48602;45.192;5.722;2022-08-25T04:37:39;21.25;19.25;15.75
62547;PMS7003;48602;45.192;5.722;2022-08-25T04:40:05;20.25;18.25;15.75
62547;PMS7003;48602;45.192;5.722;2022-08-25T04:42:31;18.75;18.75;16.75
62547;PMS7003;48602;45.192;5.722;2022-08-25T04:44:57;18.75;18.75;16.00
62547;PMS7003;48602;45.192;5.722;2022-08-25T04:47:23;20.00;20.00;16.75
62547;PMS7003;48602;45.192;5.722;2022-08-25T04:49:50;19.75;17.50;16.00
62547;PMS7003;48602;45.192;5.722;2022-08-25T04:52:15;20.00;19.00;16.00
62547;PMS7003;48602;45.192;5.722;2022-08-25T04:54:41;23.00;21.25;17.25
62547;PMS7003;48602;45.192;5.722;2022-08-25T04:57:07;21.50;19.00;15.75
62547;PMS7003;48602;45.192;5.722;2022-08-25T04:59:33;19.50;19.50;15.00
62547;PMS7003;48602;45.192;5.722;2022-08-25T05:01:59;18.50;17.50;16.00
62547;PMS7003;48602;45.192;5.722;2022-08-25T05:04:29;19.00;18.50;15.75
62547;PMS7003;48602;45.192;5.722;2022-08-25T05:06:56;21.25;19.00;15.25
62547;PMS7003;48602;45.192;5.722;2022-08-25T05:09:21;18.75;17.75;15.25
62547;PMS7003;48602;45.192;5.722;2022-08-25T05:11:47;19.75;19.75;17.50
62547;PMS7003;48602;45.192;5.722;2022-08-25T05:14:13;16.25;15.50;14.50
62547;PMS7003;48602;45.192;5.722;2022-08-25T05:16:42;21.50;20.25;16.25
62547;PMS7003;48602;45.192;5.722;2022-08-25T05:19:08;22.50;22.50;18.50
62547;PMS7003;48602;45.192;5.722;2022-08-25T05:21:33;25.25;22.50;20.00
62547;PMS7003;48602;45.192;5.722;2022-08-25T05:23:59;21.25;20.00;17.00
62547;PMS7003;48602;45.192;5.722;2022-08-25T05:26:26;14.00;14.00;14.00
62547;PMS7003;48602;45.192;5.722;2022-08-25T05:28:54;21.75;20.50;16.25
62547;PMS7003;48602;45.192;5.722;2022-08-25T05:31:21;23.75;20.75;17.25
62547;PMS7003;48602;45.192;5.722;2022-08-25T05:33:48;23.00;21.50;17.50
62547;PMS7003;48602;45.192;5.722;2022-08-25T05:36:13;21.50;21.50;18.00
62547;PMS7003;48602;45.192;5.722;2022-08-25T05:38:40;26.00;24.50;17.25
62547;PMS7003;48602;45.192;5.722;2022-08-25T05:41:07;15.75;14.50;13.50
62547;PMS7003;48602;45.192;5.722;2022-08-25T05:43:37;18.25;17.25;14.00
62547;PMS7003;48602;45.192;5.722;2022-08-25T05:46:04;20.50;20.50;15.50
62547;PMS7003;48602;45.192;5.722;2022-08-25T05:48:30;22.00;20.50;17.00
62547;PMS7003;48602;45.192;5.722;2022-08-25T05:50:56;24.25;24.25;20.25
62547;PMS7003;48602;45.192;5.722;2022-08-25T05:53:25;20.00;19.00;16.00
62547;PMS7003;48602;45.192;5.722;2022-08-25T05:55:52;20.75;20.50;16.25
62547;PMS7003;48602;45.192;5.722;2022-08-25T05:58:19;18.00;17.00;15.50
62547;PMS7003;48602;45.192;5.722;2022-08-25T06:00:45;22.25;20.00;16.25
62547;PMS7003;48602;45.192;5.722;2022-08-25T06:03:11;19.25;17.75;15.00
62547;PMS7003;48602;45.192;5.722;2022-08-25T06:05:37;19.50;19.25;16.00
62547;PMS7003;48602;45.192;5.722;2022-08-25T06:08:03;20.50;19.00;17.25
62547;PMS7003;48602;45.192;5.722;2022-08-25T06:10:28;18.00;18.00;14.75
62547;PMS7003;48602;45.192;5.722;2022-08-25T06:12:54;19.00;18.25;15.75
62547;PMS7003;48602;45.192;5.722;2022-08-25T06:15:20;21.25;20.00;17.00
62547;PMS7003;48602;45.192;5.722;2022-08-25T06:17:48;23.25;22.00;17.25
62547;PMS7003;48602;45.192;5.722;2022-08-25T06:20:15;19.75;19.00;16.00
62547;PMS7003;48602;45.192;5.722;2022-08-25T06:22:43;22.75;21.25;17.25
62547;PMS7003;48602;45.192;5.722;2022-08-25T06:25:09;23.25;21.00;18.00
62547;PMS7003;48602;45.192;5.722;2022-08-25T06:27:37;18.50;17.75;16.75
62547;PMS7003;48602;45.192;5.722;2022-08-25T06:30:04;18.50;18.00;15.50
62547;PMS7003;48602;45.192;5.722;2022-08-25T06:32:31;20.00;19.50;16.25
62547;PMS7003;48602;45.192;5.722;2022-08-25T06:34:57;20.25;20.00;17.00
62547;PMS7003;48602;45.192;5.722;2022-08-25T06:37:23;19.50;19.25;16.00
62547;PMS7003;48602;45.192;5.722;2022-08-25T06:39:49;20.50;20.00;17.00
62547;PMS7003;48602;45.192;5.722;2022-08-25T06:42:15;17.50;17.50;14.00
62547;PMS7003;48602;45.192;5.722;2022-08-25T06:44:40;19.50;18.50;15.00
62547;PMS7003;48602;45.192;5.722;2022-08-25T06:47:06;16.25;16.25;14.00
62547;PMS7003;48602;45.192;5.722;2022-08-25T06:49:31;20.00;17.50;15.50
62547;PMS7003;48602;45.192;5.722;2022-08-25T06:51:57;21.00;21.00;17.75
62547;PMS7003;48602;45.192;5.722;2022-08-25T06:54:23;20.75;18.50;16.25
62547;PMS7003;48602;45.192;5.722;2022-08-25T06:56:48;23.50;22.75;19.00
62547;PMS7003;48602;45.192;5.722;2022-08-25T06:59:13;19.50;18.25;14.50
62547;PMS7003;48602;45.192;5.722;2022-08-25T07:01:39;18.00;18.00;14.25
62547;PMS7003;48602;45.192;5.722;2022-08-25T07:04:05;22.50;19.50;17.00
62547;PMS7003;48602;45.192;5.722;2022-08-25T07:06:31;16.50;16.50;15.00
62547;PMS7003;48602;45.192;5.722;2022-08-25T07:09:02;21.25;21.25;17.00
62547;PMS7003;48602;45.192;5.722;2022-08-25T07:11:29;17.75;17.50;14.75
62547;PMS7003;48602;45.192;5.722;2022-08-25T07:13:58;20.75;18.00;14.00
62547;PMS7003;48602;45.192;5.722;2022-08-25T07:16:24;17.25;16.00;14.25
62547;PMS7003;48602;45.192;5.722;2022-08-25T07:18:51;18.25;18.25;15.50
62547;PMS7003;48602;45.192;5.722;2022-08-25T07:21:20;17.75;17.75;14.50
62547;PMS7003;48602;45.192;5.722;2022-08-25T07:23:46;24.50;21.75;16.75
62547;PMS7003;48602;45.192;5.722;2022-08-25T07:28:39;21.00;19.00;16.00
62547;PMS7003;48602;45.192;5.722;2022-08-25T07:31:05;18.00;18.00;16.00
62547;PMS7003;48602;45.192;5.722;2022-08-25T07:33:31;20.00;20.00;16.75
62547;PMS7003;48602;45.192;5.722;2022-08-25T07:35:56;18.75;18.75;16.25
62547;PMS7003;48602;45.192;5.722;2022-08-25T07:38:22;20.25;19.25;16.50
62547;PMS7003;48602;45.192;5.722;2022-08-25T07:40:47;18.50;18.50;15.00
62547;PMS7003;48602;45.192;5.722;2022-08-25T07:43:19;19.75;18.50;16.50
62547;PMS7003;48602;45.192;5.722;2022-08-25T07:45:47;20.00;18.25;15.00
62547;PMS7003;48602;45.192;5.722;2022-08-25T07:48:13;21.75;20.75;16.75
62547;PMS7003;48602;45.192;5.722;2022-08-25T07:50:40;20.00;18.75;17.00
62547;PMS7003;48602;45.192;5.722;2022-08-25T07:53:08;15.00;15.00;13.50
62547;PMS7003;48602;45.192;5.722;2022-08-25T07:55:34;20.75;19.75;17.00
62547;PMS7003;48602;45.192;5.722;2022-08-25T07:58:04;20.50;19.00;16.50
62547;PMS7003;48602;45.192;5.722;2022-08-25T08:00:31;22.50;21.00;17.75
62547;PMS7003;48602;45.192;5.722;2022-08-25T08:03:04;18.50;18.00;16.00
62547;PMS7003;48602;45.192;5.722;2022-08-25T08:05:31;22.75;19.50;16.75
62547;PMS7003;48602;45.192;5.722;2022-08-25T08:07:57;17.25;17.25;16.00
62547;PMS7003;48602;45.192;5.722;2022-08-25T08:10:24;18.25;17.25;15.50
62547;PMS7003;48602;45.192;5.722;2022-08-25T08:12:50;21.75;18.75;16.50
62547;PMS7003;48602;45.192;5.722;2022-08-25T08:15:17;19.25;17.25;14.75
62547;PMS7003;48602;45.192;5.722;2022-08-25T08:17:43;20.25;20.00;17.00
62547;PMS7003;48602;45.192;5.722;2022-08-25T08:20:09;25.25;22.50;17.50
62547;PMS7003;48602;45.192;5.722;2022-08-25T08:22:36;17.50;16.00;14.75
62547;PMS7003;48602;45.192;5.722;2022-08-25T08:25:04;17.00;17.00;14.75
62547;PMS7003;48602;45.192;5.722;2022-08-25T08:27:30;21.25;20.00;16.25
62547;PMS7003;48602;45.192;5.722;2022-08-25T08:29:56;21.50;21.50;17.25
62547;PMS7003;48602;45.192;5.722;2022-08-25T08:32:21;21.00;18.50;17.25
62547;PMS7003;48602;45.192;5.722;2022-08-25T08:34:47;21.00;19.75;16.75
62547;PMS7003;48602;45.192;5.722;2022-08-25T08:37:13;17.00;17.00;15.50
62547;PMS7003;48602;45.192;5.722;2022-08-25T08:39:39;17.75;17.75;15.00
62547;PMS7003;48602;45.192;5.722;2022-08-25T08:52:56;19.00;18.25;16.25
62547;PMS7003;48602;45.192;5.722;2022-08-25T08:58:22;17.75;17.50;15.00
62547;PMS7003;48602;45.192;5.722;2022-08-25T09:00:54;21.00;20.50;17.25
62547;PMS7003;48602;45.192;5.722;2022-08-25T09:03:45;22.75;21.00;17.00
62547;PMS7003;48602;45.192;5.722;2022-08-25T09:06:19;24.25;20.50;18.00
62547;PMS7003;48602;45.192;5.722;2022-08-25T09:08:49;20.50;20.25;17.00
62547;PMS7003;48602;45.192;5.722;2022-08-25T09:17:03;20.50;17.50;15.25
62547;PMS7003;48602;45.192;5.722;2022-08-25T09:30:31;20.75;19.75;16.75
62547;PMS7003;48602;45.192;5.722;2022-08-25T09:33:14;20.00;20.00;17.75
62547;PMS7003;48602;45.192;5.722;2022-08-25T09:35:44;23.75;22.25;16.50
62547;PMS7003;48602;45.192;5.722;2022-08-25T09:38:11;22.00;20.25;16.75
62547;PMS7003;48602;45.192;5.722;2022-08-25T09:40:41;20.25;18.00;16.00
62547;PMS7003;48602;45.192;5.722;2022-08-25T09:45:45;21.50;21.00;17.00
62547;PMS7003;48602;45.192;5.722;2022-08-25T09:54:02;17.75;17.00;16.00
62547;PMS7003;48602;45.192;5.722;2022-08-25T09:56:31;19.00;17.75;15.50
62547;PMS7003;48602;45.192;5.722;2022-08-25T10:01:51;18.50;18.00;16.00
62547;PMS7003;48602;45.192;5.722;2022-08-25T10:04:28;17.00;17.00;14.00
62547;PMS7003;48602;45.192;5.722;2022-08-25T10:06:59;20.50;19.25;16.00
62547;PMS7003;48602;45.192;5.722;2022-08-25T10:11:53;18.25;18.25;15.00
62547;PMS7003;48602;45.192;5.722;2022-08-25T10:14:27;15.50;15.50;13.75
62547;PMS7003;48602;45.192;5.722;2022-08-25T10:19:51;22.25;21.75;17.25
62547;PMS7003;48602;45.192;5.722;2022-08-25T10:22:20;19.00;18.00;14.50
62547;PMS7003;48602;45.192;5.722;2022-08-25T10:24:46;20.50;19.00;15.25
62547;PMS7003;48602;45.192;5.722;2022-08-25T10:32:29;19.50;18.25;16.00
62547;PMS7003;48602;45.192;5.722;2022-08-25T10:34:58;20.25;19.00;15.25
62547;PMS7003;48602;45.192;5.722;2022-08-25T10:40:28;17.00;17.00;15.00
62547;PMS7003;48602;45.192;5.722;2022-08-25T10:45:52;21.25;21.25;18.75
62547;PMS7003;48602;45.192;5.722;2022-08-25T10:48:38;20.50;20.50;17.25
62547;PMS7003;48602;45.192;5.722;2022-08-25T10:56:49;17.50;17.25;15.00
62547;PMS7003;48602;45.192;5.722;2022-08-25T11:07:57;20.50;18.00;15.00
62547;PMS7003;48602;45.192;5.722;2022-08-25T11:13:03;21.25;18.25;15.50
62547;PMS7003;48602;45.192;5.722;2022-08-25T11:15:39;15.50;15.50;14.25
62547;PMS7003;48602;45.192;5.722;2022-08-25T11:18:20;16.50;15.00;13.50
62547;PMS7003;48602;45.192;5.722;2022-08-25T11:26:02;11.25;9.00;8.00
62547;PMS7003;48602;45.192;5.722;2022-08-25T11:28:53;7.00;6.75;6.00
62547;PMS7003;48602;45.192;5.722;2022-08-25T11:31:36;7.80;7.60;7.00
62547;PMS7003;48602;45.192;5.722;2022-08-25T11:34:05;10.00;10.00;9.00
62547;PMS7003;48602;45.192;5.722;2022-08-25T11:36:36;7.50;7.00;6.50
62547;PMS7003;48602;45.192;5.722;2022-08-25T11:39:15;7.00;7.00;6.25
62547;PMS7003;48602;45.192;5.722;2022-08-25T11:44:49;10.00;9.00;8.75
62547;PMS7003;48602;45.192;5.722;2022-08-25T11:50:07;7.20;7.20;7.00
62547;PMS7003;48602;45.192;5.722;2022-08-25T11:52:54;7.00;6.80;6.00
62547;PMS7003;48602;45.192;5.722;2022-08-25T11:55:25;10.00;7.80;6.00
62547;PMS7003;48602;45.192;5.722;2022-08-25T11:58:19;4.75;4.75;4.25
62547;PMS7003;48602;45.192;5.722;2022-08-25T12:00:55;3.75;3.75;3.50
62547;PMS7003;48602;45.192;5.722;2022-08-25T12:17:05;6.20;5.60;5.20
62547;PMS7003;48602;45.192;5.722;2022-08-25T12:19:46;6.50;6.50;5.75
62547;PMS7003;48602;45.192;5.722;2022-08-25T12:27:16;5.60;5.60;4.80
62547;PMS7003;48602;45.192;5.722;2022-08-25T12:35:16;5.00;5.00;5.00
62547;PMS7003;48602;45.192;5.722;2022-08-25T12:38:08;5.25;5.25;4.75
62547;PMS7003;48602;45.192;5.722;2022-08-25T12:43:08;5.00;5.00;4.25
62547;PMS7003;48602;45.192;5.722;2022-08-25T12:45:38;3.00;3.00;3.00
62547;PMS7003;48602;45.192;5.722;2022-08-25T12:51:21;5.50;5.50;4.75
62547;PMS7003;48602;45.192;5.722;2022-08-25T12:53:56;5.00;4.00;3.25
62547;PMS7003;48602;45.192;5.722;2022-08-25T12:56:43;3.20;3.20;3.00
62547;PMS7003;48602;45.192;5.722;2022-08-25T13:04:48;3.00;3.00;3.00
62547;PMS7003;48602;45.192;5.722;2022-08-25T13:10:52;2.00;1.00;1.00
62547;PMS7003;48602;45.192;5.722;2022-08-25T13:16:26;2.60;2.60;2.00
62547;PMS7003;48602;45.192;5.722;2022-08-25T13:18:53;2.40;1.80;1.80
62547;PMS7003;48602;45.192;5.722;2022-08-25T13:21:33;4.20;4.20;4.00
62547;PMS7003;48602;45.192;5.722;2022-08-25T13:24:00;5.00;5.00;5.00
62547;PMS7003;48602;45.192;5.722;2022-08-25T13:26:30;4.00;4.00;3.20
62547;PMS7003;48602;45.192;5.722;2022-08-25T13:28:59;2.80;1.60;1.60
62547;PMS7003;48602;45.192;5.722;2022-08-25T13:31:32;5.00;4.00;3.60
62547;PMS7003;48602;45.192;5.722;2022-08-25T13:34:00;5.00;3.25;2.75
62547;PMS7003;48602;45.192;5.722;2022-08-25T13:36:29;3.60;2.60;2.60
62547;PMS7003;48602;45.192;5.722;2022-08-25T13:39:25;4.00;4.00;4.00
62547;PMS7003;48602;45.192;5.722;2022-08-25T13:41:53;5.25;5.00;4.25
62547;PMS7003;48602;45.192;5.722;2022-08-25T13:44:21;4.00;4.00;4.00
62547;PMS7003;48602;45.192;5.722;2022-08-25T13:47:50;5.20;5.20;4.80
62547;PMS7003;48602;45.192;5.722;2022-08-25T13:50:14;4.00;2.00;2.00
62547;PMS7003;48602;45.192;5.722;2022-08-25T13:52:50;4.20;4.00;4.00
62547;PMS7003;48602;45.192;5.722;2022-08-25T13:55:38;5.50;5.25;5.00
62547;PMS7003;48602;45.192;5.722;2022-08-25T13:58:14;3.60;3.60;3.20
62547;PMS7003;48602;45.192;5.722;2022-08-25T14:00:46;6.00;6.00;5.00
62547;PMS7003;48602;45.192;5.722;2022-08-25T14:03:35;4.00;4.00;3.50
62547;PMS7003;48602;45.192;5.722;2022-08-25T14:06:17;6.00;6.00;5.75
62547;PMS7003;48602;45.192;5.722;2022-08-25T14:08:47;5.50;4.00;3.75
62547;PMS7003;48602;45.192;5.722;2022-08-25T14:11:32;4.00;4.00;4.00
62547;PMS7003;48602;45.192;5.722;2022-08-25T14:14:06;5.50;5.50;5.50
62547;PMS7003;48602;45.192;5.722;2022-08-25T14:16:36;4.00;4.00;3.50
62547;PMS7003;48602;45.192;5.722;2022-08-25T14:19:25;5.80;5.40;4.80
62547;PMS7003;48602;45.192;5.722;2022-08-25T14:21:51;2.25;2.25;2.25
62547;PMS7003;48602;45.192;5.722;2022-08-25T14:24:19;5.00;5.00;5.00
62547;PMS7003;48602;45.192;5.722;2022-08-25T14:26:47;6.00;4.75;4.75
62547;PMS7003;48602;45.192;5.722;2022-08-25T14:29:13;5.00;5.00;5.00
62547;PMS7003;48602;45.192;5.722;2022-08-25T14:31:40;5.00;5.00;5.00
62547;PMS7003;48602;45.192;5.722;2022-08-25T14:34:09;4.75;4.75;4.00
62547;PMS7003;48602;45.192;5.722;2022-08-25T14:36:39;5.50;5.50;5.50
62547;PMS7003;48602;45.192;5.722;2022-08-25T14:39:05;4.75;4.75;4.00
62547;PMS7003;48602;45.192;5.722;2022-08-25T14:41:32;6.75;5.75;5.75
62547;PMS7003;48602;45.192;5.722;2022-08-25T14:43:59;5.00;5.00;5.00
62547;PMS7003;48602;45.192;5.722;2022-08-25T14:46:26;4.50;4.50;4.00
62547;PMS7003;48602;45.192;5.722;2022-08-25T14:48:55;3.50;2.00;2.00
62547;PMS7003;48602;45.192;5.722;2022-08-25T14:51:24;4.80;4.20;4.00
62547;PMS7003;48602;45.192;5.722;2022-08-25T14:53:52;6.00;6.00;5.75
62547;PMS7003;48602;45.192;5.722;2022-08-25T14:56:20;4.75;4.25;3.75
62547;PMS7003;48602;45.192;5.722;2022-08-25T14:58:45;7.00;5.25;5.00
62547;PMS7003;48602;45.192;5.722;2022-08-25T15:01:11;5.75;5.75;4.25
62547;PMS7003;48602;45.192;5.722;2022-08-25T15:03:39;6.25;5.25;5.25
62547;PMS7003;48602;45.192;5.722;2022-08-25T15:06:08;5.75;5.50;5.50
62547;PMS7003;48602;45.192;5.722;2022-08-25T15:08:36;4.50;4.50;4.25
62547;PMS7003;48602;45.192;5.722;2022-08-25T15:11:20;4.80;4.80;4.60
62547;PMS7003;48602;45.192;5.722;2022-08-25T15:13:46;6.00;6.00;5.25
62547;PMS7003;48602;45.192;5.722;2022-08-25T15:16:13;4.00;4.00;4.00
62547;PMS7003;48602;45.192;5.722;2022-08-25T15:18:44;4.80;3.40;3.40
62547;PMS7003;48602;45.192;5.722;2022-08-25T15:21:10;4.00;4.00;3.00
62547;PMS7003;48602;45.192;5.722;2022-08-25T15:23:36;4.75;4.75;4.50
62547;PMS7003;48602;45.192;5.722;2022-08-25T15:26:01;5.50;5.50;5.00
62547;PMS7003;48602;45.192;5.722;2022-08-25T15:28:26;4.75;4.75;4.50
62547;PMS7003;48602;45.192;5.722;2022-08-25T15:30:52;5.75;3.50;3.50
62547;PMS7003;48602;45.192;5.722;2022-08-25T15:33:17;5.50;5.00;4.75
62547;PMS7003;48602;45.192;5.722;2022-08-25T15:35:43;4.25;4.00;3.50
62547;PMS7003;48602;45.192;5.722;2022-08-25T15:38:09;5.40;4.40;4.20
62547;PMS7003;48602;45.192;5.722;2022-08-25T15:40:34;3.00;3.00;2.50
62547;PMS7003;48602;45.192;5.722;2022-08-25T15:43:02;5.50;5.00;4.75
62547;PMS7003;48602;45.192;5.722;2022-08-25T15:45:28;1.00;1.00;1.00
62547;PMS7003;48602;45.192;5.722;2022-08-25T15:47:53;4.00;4.00;4.00
62547;PMS7003;48602;45.192;5.722;2022-08-25T15:50:19;3.00;3.00;3.00
62547;PMS7003;48602;45.192;5.722;2022-08-25T15:52:45;6.50;5.00;4.75
62547;PMS7003;48602;45.192;5.722;2022-08-25T15:55:11;4.00;4.00;4.00
62547;PMS7003;48602;45.192;5.722;2022-08-25T15:57:38;7.75;5.00;5.00
62547;PMS7003;48602;45.192;5.722;2022-08-25T16:00:05;3.00;3.00;2.60
62547;PMS7003;48602;45.192;5.722;2022-08-25T16:02:34;3.00;3.00;3.00
62547;PMS7003;48602;45.192;5.722;2022-08-25T16:05:00;5.25;5.00;4.25
62547;PMS7003;48602;45.192;5.722;2022-08-25T16:07:26;3.80;3.80;3.40
62547;PMS7003;48602;45.192;5.722;2022-08-25T16:09:55;5.25;3.75;3.25
62547;PMS7003;48602;45.192;5.722;2022-08-25T16:12:21;4.00;4.00;3.80
62547;PMS7003;48602;45.192;5.722;2022-08-25T16:14:48;4.00;3.00;3.00
62547;PMS7003;48602;45.192;5.722;2022-08-25T16:17:14;4.00;3.50;3.00